createdAt,value
2018-08-19T00:00:59.304Z,99.99
2018-08-19T00:01:59.570Z,99.99
2018-08-19T00:02:59.781Z,99.99
2018-08-19T00:04:00.028Z,99.99
2018-08-19T00:05:00.289Z,99.99
2018-08-19T00:06:00.515Z,99.99
2018-08-19T00:07:00.779Z,99.99
2018-08-19T00:08:00.992Z,99.99
2018-08-19T00:09:01.286Z,99.99
2018-08-19T00:10:01.475Z,99.99
2018-08-19T00:11:10.757Z,99.00
2018-08-19T00:12:02.191Z,99.67
2018-08-19T00:13:02.327Z,99.99
2018-08-19T00:14:02.543Z,99.99
2018-08-19T00:15:02.831Z,99.99
2018-08-19T00:16:03.050Z,99.96
2018-08-19T00:17:03.282Z,99.99
2018-08-19T00:18:03.512Z,99.38
2018-08-19T00:19:03.743Z,99.29
2018-08-19T00:20:03.961Z,99.99
2018-08-19T00:21:04.193Z,99.99
2018-08-19T00:22:04.431Z,99.99
2018-08-19T00:23:04.695Z,99.99
2018-08-19T00:24:04.935Z,99.99
2018-08-19T00:25:05.138Z,99.99
2018-08-19T00:26:14.157Z,99.99
2018-08-19T00:27:05.956Z,99.99
2018-08-19T00:28:06.277Z,99.99
2018-08-19T00:29:06.251Z,99.99
2018-08-19T00:30:15.425Z,99.99
2018-08-19T00:31:06.820Z,99.99
2018-08-19T00:32:06.946Z,99.86
2018-08-19T00:33:07.197Z,99.99
2018-08-19T00:34:07.453Z,99.67
2018-08-19T00:35:07.699Z,99.29
2018-08-19T00:36:07.959Z,99.67
2018-08-19T00:37:17.108Z,98.90
2018-08-19T00:38:08.474Z,98.52
2018-08-19T00:39:08.672Z,99.99
2018-08-19T00:40:08.908Z,99.99
2018-08-19T00:41:09.123Z,99.99
2018-08-19T00:42:09.348Z,99.57
2018-08-19T00:43:09.569Z,99.00
2018-08-19T00:44:09.843Z,98.90
2018-08-19T00:45:10.093Z,99.67
2018-08-19T00:46:10.291Z,98.71
2018-08-19T00:47:19.257Z,99.19
2018-08-19T00:48:11.131Z,98.04
2018-08-19T00:49:19.970Z,97.13
2018-08-19T00:50:20.315Z,96.66
2018-08-19T00:51:12.021Z,95.98
2018-08-19T00:52:12.284Z,95.03
2018-08-19T00:53:22.287Z,93.98
2018-08-19T00:54:12.851Z,95.22
2018-08-19T00:55:13.070Z,95.79
2018-08-19T00:56:13.203Z,96.47
2018-08-19T00:57:22.333Z,94.84
2018-08-19T00:58:13.738Z,95.32
2018-08-19T00:59:13.972Z,96.27
2018-08-19T01:00:14.153Z,97.04
2018-08-19T01:01:14.423Z,96.75
2018-08-19T01:02:14.660Z,97.04
2018-08-19T01:03:14.921Z,96.37
2018-08-19T01:04:15.164Z,96.27
2018-08-19T01:05:15.383Z,96.56
2018-08-19T01:06:15.606Z,96.66
2018-08-19T01:07:15.855Z,97.13
2018-08-19T01:08:25.931Z,96.27
2018-08-19T01:09:16.505Z,95.79
2018-08-19T01:10:16.748Z,95.32
2018-08-19T01:11:16.945Z,94.36
2018-08-19T01:12:26.842Z,92.59
2018-08-19T01:13:26.153Z,91.06
2018-08-19T01:14:17.912Z,90.49
2018-08-19T01:15:18.142Z,90.78
2018-08-19T01:16:28.073Z,90.20
2018-08-19T01:17:27.284Z,88.01
2018-08-19T01:18:19.017Z,87.01
2018-08-19T01:19:19.325Z,86.53
2018-08-19T01:20:19.493Z,86.53
2018-08-19T01:21:28.432Z,85.48
2018-08-19T01:22:28.884Z,85.96
2018-08-19T01:23:29.256Z,86.91
2018-08-19T01:24:29.667Z,86.24
2018-08-19T01:25:29.992Z,83.67
2018-08-19T01:26:30.428Z,83.47
2018-08-19T01:27:31.911Z,83.05
2018-08-19T01:28:22.363Z,82.29
2018-08-19T01:29:31.305Z,80.95
2018-08-19T01:30:23.039Z,81.04
2018-08-19T01:31:31.980Z,79.52
2018-08-19T01:32:32.373Z,78.75
2018-08-19T01:33:32.714Z,77.51
2018-08-19T01:34:24.518Z,73.60
2018-08-19T01:35:33.341Z,74.37
2018-08-19T01:36:33.634Z,73.66
2018-08-19T01:37:33.978Z,72.83
2018-08-19T01:38:34.360Z,72.89
2018-08-19T01:39:25.917Z,73.18
2018-08-19T01:40:35.838Z,71.75
2018-08-19T01:41:35.056Z,71.41
2018-08-19T01:42:26.895Z,67.65
2018-08-19T01:43:35.809Z,66.92
2018-08-19T01:44:27.511Z,70.16
2018-08-19T01:45:35.451Z,69.68
2018-08-19T01:46:27.920Z,68.44
2018-08-19T01:47:36.768Z,70.92
2018-08-19T01:48:37.252Z,72.83
2018-08-19T01:49:37.560Z,72.26
2018-08-19T01:50:29.368Z,67.68
2018-08-19T01:51:39.266Z,66.15
2018-08-19T01:52:29.827Z,67.11
2018-08-19T01:53:30.092Z,67.01
2018-08-19T01:54:38.969Z,70.26
2018-08-19T01:55:30.665Z,70.64
2018-08-19T01:56:39.660Z,67.87
2018-08-19T01:57:39.863Z,62.24
2018-08-19T01:58:40.237Z,66.15
2018-08-19T01:59:31.963Z,61.57
2018-08-19T02:00:41.912Z,67.77
2018-08-19T02:01:32.461Z,68.26
2018-08-19T02:02:42.452Z,70.16
2018-08-19T02:03:41.723Z,69.59
2018-08-19T02:04:33.424Z,67.49
2018-08-19T02:05:43.288Z,63.29
2018-08-19T02:06:42.562Z,62.81
2018-08-19T02:07:42.943Z,62.43
2018-08-19T02:08:43.384Z,65.58
2018-08-19T02:09:43.763Z,67.30
2018-08-19T02:10:43.901Z,68.54
2018-08-19T02:11:44.337Z,65.10
2018-08-19T02:12:36.030Z,67.58
2018-08-19T02:13:36.238Z,77.99
2018-08-19T02:14:36.476Z,75.98
2018-08-19T02:15:45.514Z,76.94
2018-08-19T02:16:37.010Z,76.08
2018-08-19T02:17:37.249Z,75.32
2018-08-19T02:18:46.138Z,76.14
2018-08-19T02:19:46.577Z,73.75
2018-08-19T02:20:47.036Z,74.71
2018-08-19T02:21:48.317Z,74.32
2018-08-19T02:22:48.591Z,74.71
2018-08-19T02:23:48.973Z,75.18
2018-08-19T02:24:48.230Z,74.32
2018-08-19T02:25:40.148Z,71.14
2018-08-19T02:26:48.917Z,68.47
2018-08-19T02:27:40.778Z,61.89
2018-08-19T02:28:41.049Z,53.78
2018-08-19T02:29:41.244Z,50.83
2018-08-19T02:30:51.241Z,51.50
2018-08-19T02:31:50.391Z,52.73
2018-08-19T02:32:42.160Z,50.16
2018-08-19T02:33:51.018Z,48.83
2018-08-19T02:34:42.787Z,49.87
2018-08-19T02:35:51.610Z,51.43
2018-08-19T02:36:43.312Z,50.28
2018-08-19T02:37:52.442Z,51.12
2018-08-19T02:38:52.668Z,49.02
2018-08-19T02:39:44.372Z,49.11
2018-08-19T02:40:54.227Z,49.13
2018-08-19T02:41:53.488Z,50.47
2018-08-19T02:42:54.892Z,54.38
2018-08-19T02:43:54.181Z,55.62
2018-08-19T02:44:45.877Z,58.01
2018-08-19T02:45:54.781Z,61.29
2018-08-19T02:46:55.113Z,61.92
2018-08-19T02:47:55.510Z,61.63
2018-08-19T02:48:56.933Z,61.44
2018-08-19T02:49:56.189Z,60.58
2018-08-19T02:50:56.527Z,59.06
2018-08-19T02:51:56.973Z,57.31
2018-08-19T02:52:57.353Z,56.17
2018-08-19T02:53:57.724Z,50.63
2018-08-19T02:54:58.092Z,45.97
2018-08-19T02:55:49.834Z,47.87
2018-08-19T02:56:58.703Z,46.08
2018-08-19T02:57:58.923Z,47.99
2018-08-19T02:58:59.397Z,50.57
2018-08-19T02:59:59.772Z,51.81
2018-08-19T03:00:59.877Z,51.14
2018-08-19T03:02:01.292Z,57.15
2018-08-19T03:03:00.540Z,57.79
2018-08-19T03:04:00.945Z,54.45
2018-08-19T03:05:01.329Z,52.36
2018-08-19T03:06:01.697Z,50.83
2018-08-19T03:07:02.179Z,52.45
2018-08-19T03:07:53.919Z,50.83
2018-08-19T03:09:02.810Z,47.87
2018-08-19T03:10:02.973Z,44.34
2018-08-19T03:11:03.206Z,39.19
2018-08-19T03:12:04.525Z,35.19
2018-08-19T03:13:03.758Z,33.47
2018-08-19T03:14:04.174Z,31.85
2018-08-19T03:15:04.598Z,30.71
2018-08-19T03:16:04.958Z,29.75
2018-08-19T03:17:06.336Z,30.42
2018-08-19T03:18:05.571Z,31.37
2018-08-19T03:18:57.315Z,32.42
2018-08-19T03:20:06.196Z,32.81
2018-08-19T03:21:06.551Z,32.71
2018-08-19T03:22:06.958Z,33.47
2018-08-19T03:23:08.362Z,33.28
2018-08-19T03:24:07.591Z,33.66
2018-08-19T03:25:07.947Z,33.09
2018-08-19T03:26:08.363Z,32.81
2018-08-19T03:27:08.725Z,33.28
2018-08-19T03:28:09.117Z,34.31
2018-08-19T03:29:09.504Z,32.60
2018-08-19T03:30:09.823Z,32.61
2018-08-19T03:31:10.226Z,30.52
2018-08-19T03:32:10.644Z,30.21
2018-08-19T03:33:11.083Z,29.26
2018-08-19T03:34:11.414Z,28.21
2018-08-19T03:35:11.807Z,25.54
2018-08-19T03:36:12.185Z,24.22
2018-08-19T03:37:12.617Z,26.22
2018-08-19T03:38:12.979Z,28.23
2018-08-19T03:39:14.355Z,33.47
2018-08-19T03:40:13.644Z,37.86
2018-08-19T03:41:15.051Z,37.57
2018-08-19T03:42:15.200Z,34.42
2018-08-19T03:43:14.432Z,32.60
2018-08-19T03:44:14.762Z,30.13
2018-08-19T03:45:15.187Z,29.18
2018-08-19T03:46:15.541Z,28.99
2018-08-19T03:47:15.935Z,34.98
2018-08-19T03:48:16.411Z,31.07
2018-08-19T03:49:16.683Z,26.78
2018-08-19T03:50:17.079Z,26.78
2018-08-19T03:51:18.434Z,34.31
2018-08-19T03:52:18.697Z,37.93
2018-08-19T03:53:17.910Z,53.09
2018-08-19T03:54:19.295Z,61.57
2018-08-19T03:55:18.535Z,62.72
2018-08-19T03:56:18.923Z,60.52
2018-08-19T03:57:19.230Z,51.66
2018-08-19T03:58:19.668Z,42.89
2018-08-19T03:59:20.020Z,30.60
2018-08-19T04:00:21.420Z,28.02
2018-08-19T04:01:21.659Z,23.54
2018-08-19T04:02:21.861Z,20.87
2018-08-19T04:03:21.104Z,34.22
2018-08-19T04:04:21.493Z,42.60
2018-08-19T04:05:21.861Z,45.08
2018-08-19T04:06:22.324Z,50.45
2018-08-19T04:07:22.672Z,53.02
2018-08-19T04:08:23.018Z,52.83
2018-08-19T04:09:23.369Z,54.36
2018-08-19T04:10:23.785Z,53.97
2018-08-19T04:11:24.126Z,55.31
2018-08-19T04:12:24.507Z,57.22
2018-08-19T04:13:24.894Z,57.60
2018-08-19T04:14:25.285Z,58.46
2018-08-19T04:15:25.663Z,59.22
2018-08-19T04:16:26.043Z,59.31
2018-08-19T04:17:27.417Z,54.17
2018-08-19T04:18:26.628Z,50.73
2018-08-19T04:19:27.019Z,53.02
2018-08-19T04:20:27.394Z,52.92
2018-08-19T04:21:27.781Z,49.68
2018-08-19T04:22:28.150Z,52.07
2018-08-19T04:23:28.573Z,56.55
2018-08-19T04:24:28.928Z,60.27
2018-08-19T04:25:29.373Z,59.03
2018-08-19T04:26:29.500Z,58.36
2018-08-19T04:27:29.931Z,61.76
2018-08-19T04:28:30.311Z,61.29
2018-08-19T04:29:31.715Z,58.91
2018-08-19T04:30:30.896Z,59.19
2018-08-19T04:31:31.296Z,58.72
2018-08-19T04:32:31.696Z,57.38
2018-08-19T04:33:32.041Z,55.85
2018-08-19T04:34:33.400Z,54.90
2018-08-19T04:35:32.638Z,53.95
2018-08-19T04:36:34.037Z,49.95
2018-08-19T04:37:33.275Z,48.61
2018-08-19T04:38:33.705Z,47.08
2018-08-19T04:39:34.114Z,47.08
2018-08-19T04:40:35.439Z,47.30
2018-08-19T04:41:34.689Z,47.30
2018-08-19T04:42:36.059Z,48.07
2018-08-19T04:43:35.337Z,49.21
2018-08-19T04:44:35.704Z,49.68
2018-08-19T04:45:36.068Z,49.97
2018-08-19T04:46:37.470Z,49.30
2018-08-19T04:47:36.755Z,46.73
2018-08-19T04:48:37.142Z,47.02
2018-08-19T04:49:37.588Z,47.49
2018-08-19T04:50:37.902Z,49.87
2018-08-19T04:51:38.310Z,52.55
2018-08-19T04:52:39.672Z,53.97
2018-08-19T04:53:38.915Z,56.01
2018-08-19T04:54:39.340Z,56.20
2018-08-19T04:55:39.648Z,59.06
2018-08-19T04:56:40.077Z,61.83
2018-08-19T04:57:40.470Z,65.23
2018-08-19T04:58:40.882Z,64.37
2018-08-19T04:59:41.217Z,62.46
2018-08-19T05:00:41.567Z,61.89
2018-08-19T05:01:41.990Z,60.75
2018-08-19T05:02:42.373Z,60.17
2018-08-19T05:03:42.791Z,58.46
2018-08-19T05:04:43.130Z,58.75
2018-08-19T05:05:43.537Z,63.51
2018-08-19T05:06:43.922Z,61.13
2018-08-19T05:07:45.329Z,59.03
2018-08-19T05:08:44.584Z,58.17
2018-08-19T05:09:46.007Z,53.81
2018-08-19T05:10:46.141Z,59.16
2018-08-19T05:11:45.380Z,58.29
2018-08-19T05:12:45.808Z,59.92
2018-08-19T05:13:46.179Z,61.19
2018-08-19T05:14:46.521Z,61.38
2018-08-19T05:15:46.928Z,64.81
2018-08-19T05:16:48.361Z,65.87
2018-08-19T05:17:47.606Z,67.30
2018-08-19T05:18:47.989Z,67.43
2018-08-19T05:19:48.310Z,67.91
2018-08-19T05:20:48.795Z,68.19
2018-08-19T05:21:49.155Z,69.49
2018-08-19T05:22:49.607Z,68.38
2018-08-19T05:23:49.990Z,67.24
2018-08-19T05:24:50.360Z,68.19
2018-08-19T05:25:50.704Z,70.10
2018-08-19T05:26:51.078Z,70.67
2018-08-19T05:27:52.473Z,71.92
2018-08-19T05:28:51.724Z,73.63
2018-08-19T05:29:53.027Z,73.16
2018-08-19T05:30:52.315Z,72.78
2018-08-19T05:31:52.703Z,72.20
2018-08-19T05:32:53.048Z,72.62
2018-08-19T05:33:53.473Z,72.81
2018-08-19T05:34:45.200Z,72.53
2018-08-19T05:35:54.060Z,73.48
2018-08-19T05:36:54.438Z,73.58
2018-08-19T05:37:54.888Z,74.24
2018-08-19T05:38:55.025Z,73.77
2018-08-19T05:39:55.528Z,73.39
2018-08-19T05:40:54.774Z,74.24
2018-08-19T05:41:47.601Z,74.53
2018-08-19T05:42:47.945Z,75.39
2018-08-19T05:43:48.080Z,76.57
2018-08-19T05:44:48.303Z,79.25
2018-08-19T05:45:48.537Z,80.11
2018-08-19T05:46:48.785Z,80.88
2018-08-19T05:47:49.020Z,82.51
2018-08-19T05:48:49.247Z,81.36
2018-08-19T05:49:49.487Z,81.65
2018-08-19T05:50:49.726Z,81.65
2018-08-19T05:51:49.960Z,80.40
2018-08-19T05:52:50.213Z,80.79
2018-08-19T05:53:50.444Z,80.21
2018-08-19T05:54:50.702Z,80.79
2018-08-19T05:55:50.929Z,81.16
2018-08-19T05:56:51.159Z,81.45
2018-08-19T05:58:01.073Z,82.12
2018-08-19T05:59:00.288Z,82.60
2018-08-19T06:00:00.744Z,83.08
2018-08-19T06:01:01.173Z,82.60
2018-08-19T06:02:01.424Z,82.60
2018-08-19T06:03:01.814Z,83.50
2018-08-19T06:04:02.182Z,84.36
2018-08-19T06:04:54.124Z,83.50
2018-08-19T06:05:54.272Z,83.69
2018-08-19T06:06:54.386Z,86.18
2018-08-19T06:07:54.608Z,86.70
2018-08-19T06:08:54.846Z,88.23
2018-08-19T06:09:55.081Z,88.90
2018-08-19T06:10:55.316Z,91.58
2018-08-19T06:11:55.640Z,93.07
2018-08-19T06:12:55.800Z,93.64
2018-08-19T06:13:56.032Z,94.21
2018-08-19T06:15:05.217Z,95.46
2018-08-19T06:15:56.766Z,95.36
2018-08-19T06:16:56.878Z,96.61
2018-08-19T06:17:56.987Z,96.84
2018-08-19T06:18:57.241Z,95.98
2018-08-19T06:19:57.475Z,96.75
2018-08-19T06:20:57.703Z,96.84
2018-08-19T06:21:57.950Z,98.19
2018-08-19T06:22:58.177Z,98.47
2018-08-19T06:23:58.404Z,99.24
2018-08-19T06:24:58.654Z,99.19
2018-08-19T06:25:58.889Z,99.68
2018-08-19T06:26:59.130Z,99.99
2018-08-19T06:27:59.365Z,99.29
2018-08-19T06:28:59.611Z,99.99
2018-08-19T06:29:59.850Z,99.99
2018-08-19T06:31:00.125Z,99.99
2018-08-19T06:32:00.350Z,99.99
2018-08-19T06:33:00.580Z,99.99
2018-08-19T06:34:00.813Z,99.99
2018-08-19T06:35:01.171Z,99.99
2018-08-19T06:36:01.281Z,99.99
2018-08-19T06:37:01.525Z,99.99
2018-08-19T06:38:01.763Z,99.99
2018-08-19T06:39:02.021Z,99.99
2018-08-19T06:40:02.260Z,99.99
2018-08-19T06:41:02.509Z,99.99
2018-08-19T06:42:02.740Z,99.99
2018-08-19T06:43:03.012Z,99.99
2018-08-19T06:44:03.243Z,99.99
2018-08-19T06:45:03.476Z,99.99
2018-08-19T06:46:03.715Z,99.99
2018-08-19T06:47:03.960Z,99.99
2018-08-19T06:48:04.200Z,94.44
2018-08-19T06:49:04.449Z,85.03
2018-08-19T06:50:04.714Z,77.21
2018-08-19T06:51:04.944Z,70.14
2018-08-19T06:52:05.234Z,65.40
2018-08-19T06:53:05.439Z,61.27
2018-08-19T06:54:05.666Z,57.71
2018-08-19T06:55:05.916Z,56.41
2018-08-19T06:56:06.140Z,54.50
2018-08-19T06:57:06.388Z,53.34
2018-08-19T06:58:06.629Z,51.72
2018-08-19T06:59:06.867Z,50.29
2018-08-19T07:00:07.098Z,49.71
2018-08-19T07:01:07.349Z,49.90
2018-08-19T07:02:07.593Z,48.49
2018-08-19T07:03:07.848Z,48.68
2018-08-19T07:04:08.107Z,48.30
2018-08-19T07:05:08.336Z,47.23
2018-08-19T07:06:08.569Z,47.01
2018-08-19T07:07:08.819Z,51.68
2018-08-19T07:08:17.721Z,55.11
2018-08-19T07:09:18.067Z,56.52
2018-08-19T07:10:09.806Z,56.30
2018-08-19T07:11:17.683Z,54.98
2018-08-19T07:12:10.367Z,54.43
2018-08-19T07:13:10.591Z,52.34
2018-08-19T07:14:20.468Z,50.29
2018-08-19T07:15:18.686Z,49.02
2018-08-19T07:16:19.984Z,48.10
2018-08-19T07:17:20.357Z,49.02
2018-08-19T07:18:20.733Z,48.93
2018-08-19T07:19:20.139Z,48.37
2018-08-19T07:20:20.432Z,47.61
2018-08-19T07:21:20.737Z,47.78
2018-08-19T07:22:13.411Z,47.52
2018-08-19T07:23:21.296Z,47.15
2018-08-19T07:24:13.966Z,45.52
2018-08-19T07:25:14.197Z,44.57
2018-08-19T07:26:14.444Z,44.10
2018-08-19T07:27:14.688Z,44.30
2018-08-19T07:28:22.555Z,43.74
2018-08-19T07:29:15.251Z,43.76
2018-08-19T07:30:15.482Z,43.57
2018-08-19T07:31:15.738Z,43.64
2018-08-19T07:32:16.019Z,43.05
2018-08-19T07:33:16.228Z,43.37
2018-08-19T07:34:24.095Z,43.00
2018-08-19T07:35:16.786Z,42.51
2018-08-19T07:36:17.016Z,42.20
2018-08-19T07:37:24.886Z,41.44
2018-08-19T07:38:25.234Z,40.97
2018-08-19T07:39:17.909Z,40.60
2018-08-19T07:40:18.149Z,40.53
2018-08-19T07:41:18.412Z,39.65
2018-08-19T07:42:18.694Z,39.45
2018-08-19T07:43:18.934Z,39.92
2018-08-19T07:44:19.166Z,39.04
2018-08-19T07:45:19.438Z,38.67
2018-08-19T07:46:28.416Z,38.69
2018-08-19T07:47:29.697Z,38.32
2018-08-19T07:48:30.091Z,37.04
2018-08-19T07:49:29.465Z,36.87
2018-08-19T07:50:29.601Z,36.93
2018-08-19T07:51:29.838Z,37.02
2018-08-19T07:52:30.040Z,37.62
2018-08-19T07:53:30.320Z,37.99
2018-08-19T07:54:30.977Z,37.12
2018-08-19T07:55:31.125Z,37.02
2018-08-19T07:56:31.708Z,36.54
2018-08-19T07:57:32.117Z,37.54
2018-08-19T07:58:32.414Z,37.12
2018-08-19T07:59:32.567Z,37.14
2018-08-19T08:00:33.148Z,36.85
2018-08-19T08:01:33.347Z,36.73
2018-08-19T08:02:33.686Z,38.10
2018-08-19T08:03:25.302Z,37.12
2018-08-19T08:04:34.370Z,35.99
2018-08-19T08:05:34.731Z,35.52
2018-08-19T08:06:35.097Z,34.84
2018-08-19T08:07:35.578Z,35.03
2018-08-19T08:08:36.899Z,35.77
2018-08-19T08:09:35.991Z,35.53
2018-08-19T08:10:36.688Z,34.45
2018-08-19T08:11:37.016Z,36.05
2018-08-19T08:12:37.097Z,35.99
2018-08-19T08:13:38.355Z,35.56
2018-08-19T08:14:38.628Z,37.89
2018-08-19T08:15:38.342Z,36.36
2018-08-19T08:16:39.197Z,35.50
2018-08-19T08:17:38.477Z,35.69
2018-08-19T08:18:39.765Z,35.61
2018-08-19T08:19:39.320Z,35.56
2018-08-19T08:20:40.694Z,34.16
2018-08-19T08:21:40.974Z,34.99
2018-08-19T08:22:40.222Z,34.94
2018-08-19T08:23:40.631Z,33.89
2018-08-19T08:24:40.874Z,32.74
2018-08-19T08:25:41.339Z,32.34
2018-08-19T08:26:41.678Z,33.00
2018-08-19T08:27:33.369Z,34.03
2018-08-19T08:28:42.525Z,34.99
2018-08-19T08:29:41.613Z,36.57
2018-08-19T08:30:43.247Z,37.62
2018-08-19T08:31:43.368Z,36.93
2018-08-19T08:32:43.477Z,34.36
2018-08-19T08:33:43.882Z,33.82
2018-08-19T08:34:45.428Z,33.28
2018-08-19T08:35:44.575Z,32.14
2018-08-19T08:36:44.978Z,32.70
2018-08-19T08:37:45.282Z,31.94
2018-08-19T08:38:45.878Z,31.58
2018-08-19T08:39:46.092Z,30.70
2018-08-19T08:40:47.590Z,31.22
2018-08-19T08:41:38.011Z,30.10
2018-08-19T08:42:38.313Z,32.45
2018-08-19T08:43:38.525Z,33.41
2018-08-19T08:44:38.805Z,32.84
2018-08-19T08:45:47.744Z,31.62
2018-08-19T08:46:39.432Z,31.93
2018-08-19T08:47:47.493Z,30.99
2018-08-19T08:48:39.978Z,31.59
2018-08-19T08:49:40.222Z,33.15
2018-08-19T08:50:40.467Z,32.70
2018-08-19T08:51:40.738Z,32.45
2018-08-19T08:52:40.956Z,30.67
2018-08-19T08:53:41.208Z,32.92
2018-08-19T08:54:41.461Z,34.55
2018-08-19T08:55:41.709Z,34.14
2018-08-19T08:56:41.955Z,33.41
2018-08-19T08:57:42.207Z,35.04
2018-08-19T08:58:42.454Z,34.52
2018-08-19T08:59:42.720Z,33.12
2018-08-19T09:00:42.952Z,30.99
2018-08-19T09:01:43.198Z,29.27
2018-08-19T09:02:43.452Z,28.11
2018-08-19T09:03:43.707Z,28.20
2018-08-19T09:04:43.974Z,28.52
2018-08-19T09:05:44.191Z,27.44
2018-08-19T09:06:44.455Z,28.57
2018-08-19T09:07:44.715Z,29.34
2018-08-19T09:08:44.946Z,30.63
2018-08-19T09:09:45.208Z,29.85
2018-08-19T09:10:45.444Z,29.19
2018-08-19T09:11:45.694Z,28.61
2018-08-19T09:12:45.938Z,27.23
2018-08-19T09:13:46.235Z,28.49
2018-08-19T09:14:56.054Z,28.11
2018-08-19T09:15:46.667Z,26.77
2018-08-19T09:16:46.927Z,25.60
2018-08-19T09:17:47.171Z,25.71
2018-08-19T09:18:47.417Z,26.07
2018-08-19T09:19:47.667Z,27.22
2018-08-19T09:20:47.916Z,27.50
2018-08-19T09:21:48.174Z,28.67
2018-08-19T09:22:48.462Z,28.64
2018-08-19T09:23:48.668Z,28.49
2018-08-19T09:24:48.921Z,27.82
2018-08-19T09:25:49.177Z,27.51
2018-08-19T09:26:49.432Z,26.95
2018-08-19T09:27:49.694Z,26.36
2018-08-19T09:28:49.939Z,26.37
2018-08-19T09:29:50.192Z,26.01
2018-08-19T09:30:50.449Z,26.02
2018-08-19T09:31:50.704Z,26.58
2018-08-19T09:32:50.987Z,25.70
2018-08-19T09:33:51.229Z,26.52
2018-08-19T09:34:51.492Z,28.33
2018-08-19T09:35:51.761Z,26.29
2018-08-19T09:36:52.009Z,25.49
2018-08-19T09:37:52.263Z,25.85
2018-08-19T09:38:52.521Z,26.46
2018-08-19T09:39:52.788Z,27.67
2018-08-19T09:40:53.152Z,28.44
2018-08-19T09:41:53.304Z,28.55
2018-08-19T09:42:53.558Z,28.30
2018-08-19T09:43:53.796Z,27.23
2018-08-19T09:44:54.049Z,27.40
2018-08-19T09:45:54.301Z,26.84
2018-08-19T09:46:54.572Z,26.56
2018-08-19T09:47:54.931Z,27.42
2018-08-19T09:48:55.086Z,27.23
2018-08-19T09:49:55.296Z,26.97
2018-08-19T09:50:55.572Z,26.21
2018-08-19T09:51:55.814Z,24.64
2018-08-19T09:52:56.075Z,24.45
2018-08-19T09:53:56.326Z,24.46
2018-08-19T09:54:56.574Z,24.17
2018-08-19T09:55:56.819Z,24.17
2018-08-19T09:56:57.071Z,23.87
2018-08-19T09:57:57.331Z,23.29
2018-08-19T09:58:57.590Z,23.70
2018-08-19T09:59:57.842Z,22.82
2018-08-19T10:00:58.096Z,23.13
2018-08-19T10:01:58.354Z,23.14
2018-08-19T10:02:58.611Z,21.95
2018-08-19T10:03:58.868Z,22.16
2018-08-19T10:04:59.124Z,22.45
2018-08-19T10:05:59.381Z,21.77
2018-08-19T10:06:59.637Z,21.64
2018-08-19T10:07:59.895Z,22.62
2018-08-19T10:09:00.148Z,22.04
2018-08-19T10:10:00.406Z,22.80
2018-08-19T10:11:00.661Z,24.35
2018-08-19T10:12:00.943Z,23.86
2018-08-19T10:13:01.183Z,23.39
2018-08-19T10:14:01.442Z,22.69
2018-08-19T10:15:01.684Z,24.16
2018-08-19T10:16:01.942Z,24.55
2018-08-19T10:17:02.201Z,24.53
2018-08-19T10:18:02.457Z,25.40
2018-08-19T10:19:02.720Z,25.76
2018-08-19T10:20:02.983Z,26.98
2018-08-19T10:21:03.215Z,27.78
2018-08-19T10:22:03.497Z,27.99
2018-08-19T10:23:03.720Z,27.49
2018-08-19T10:24:03.978Z,26.91
2018-08-19T10:25:04.234Z,26.46
2018-08-19T10:26:04.485Z,25.59
2018-08-19T10:27:04.741Z,24.73
2018-08-19T10:28:04.998Z,24.63
2018-08-19T10:29:05.279Z,25.31
2018-08-19T10:30:05.532Z,24.59
2018-08-19T10:31:05.769Z,25.38
2018-08-19T10:32:06.018Z,24.70
2018-08-19T10:33:06.282Z,24.49
2018-08-19T10:34:06.538Z,24.51
2018-08-19T10:35:06.797Z,24.02
2018-08-19T10:36:07.058Z,23.93
2018-08-19T10:37:07.309Z,24.41
2018-08-19T10:38:07.577Z,23.53
2018-08-19T10:39:07.828Z,24.05
2018-08-19T10:40:08.064Z,23.57
2018-08-19T10:41:08.336Z,23.24
2018-08-19T10:42:08.585Z,24.54
2018-08-19T10:43:08.835Z,26.34
2018-08-19T10:44:09.097Z,24.58
2018-08-19T10:45:09.354Z,25.07
2018-08-19T10:46:09.647Z,24.49
2018-08-19T10:47:09.861Z,23.03
2018-08-19T10:48:10.113Z,23.35
2018-08-19T10:49:10.368Z,22.34
2018-08-19T10:50:10.623Z,22.14
2018-08-19T10:51:10.882Z,21.77
2018-08-19T10:52:11.147Z,20.59
2018-08-19T10:53:11.391Z,21.47
2018-08-19T10:54:11.647Z,22.14
2018-08-19T10:55:11.906Z,22.84
2018-08-19T10:56:12.146Z,22.94
2018-08-19T10:57:12.403Z,22.74
2018-08-19T10:58:12.688Z,22.66
2018-08-19T10:59:12.908Z,22.42
2018-08-19T11:00:13.168Z,22.83
2018-08-19T11:01:13.427Z,23.13
2018-08-19T11:02:13.682Z,23.29
2018-08-19T11:03:13.937Z,24.18
2018-08-19T11:04:14.210Z,23.90
2018-08-19T11:05:14.470Z,23.31
2018-08-19T11:06:14.726Z,22.83
2018-08-19T11:07:14.979Z,23.65
2018-08-19T11:08:15.239Z,22.66
2018-08-19T11:09:15.498Z,22.35
2018-08-19T11:10:15.747Z,23.14
2018-08-19T11:11:15.995Z,22.62
2018-08-19T11:12:16.238Z,23.50
2018-08-19T11:13:16.547Z,23.52
2018-08-19T11:14:16.745Z,22.93
2018-08-19T11:15:17.012Z,23.46
2018-08-19T11:16:17.289Z,21.88
2018-08-19T11:17:17.517Z,22.27
2018-08-19T11:18:17.765Z,21.59
2018-08-19T11:19:18.026Z,21.80
2018-08-19T11:20:18.276Z,21.92
2018-08-19T11:21:18.525Z,21.42
2018-08-19T11:22:18.769Z,21.13
2018-08-19T11:23:19.039Z,21.72
2018-08-19T11:24:19.287Z,22.02
2018-08-19T11:25:19.566Z,22.20
2018-08-19T11:26:19.808Z,22.30
2018-08-19T11:27:20.073Z,22.37
2018-08-19T11:28:20.408Z,23.43
2018-08-19T11:29:20.655Z,23.51
2018-08-19T11:30:20.918Z,24.69
2018-08-19T11:31:21.221Z,23.83
2018-08-19T11:32:21.431Z,24.51
2018-08-19T11:33:21.690Z,24.69
2018-08-19T11:34:21.955Z,25.12
2018-08-19T11:35:22.216Z,24.90
2018-08-19T11:36:22.464Z,24.63
2018-08-19T11:37:22.736Z,23.75
2018-08-19T11:38:22.993Z,23.93
2018-08-19T11:39:23.246Z,23.65
2018-08-19T11:40:23.526Z,23.17
2018-08-19T11:41:23.768Z,23.06
2018-08-19T11:42:24.018Z,23.74
2018-08-19T11:43:24.321Z,23.95
2018-08-19T11:44:24.530Z,23.08
2018-08-19T11:45:24.780Z,23.73
2018-08-19T11:46:25.022Z,24.23
2018-08-19T11:47:25.315Z,24.80
2018-08-19T11:48:25.555Z,25.01
2018-08-19T11:49:25.811Z,24.46
2018-08-19T11:50:26.075Z,23.28
2018-08-19T11:51:26.302Z,23.85
2018-08-19T11:52:26.577Z,25.37
2018-08-19T11:53:26.839Z,26.73
2018-08-19T11:54:27.114Z,27.09
2018-08-19T11:55:27.455Z,26.72
2018-08-19T11:56:27.632Z,26.35
2018-08-19T11:57:27.873Z,26.58
2018-08-19T11:58:28.133Z,25.49
2018-08-19T11:59:28.379Z,25.48
2018-08-19T12:00:28.633Z,25.48
2018-08-19T12:01:28.883Z,25.77
2018-08-19T12:02:29.151Z,25.40
2018-08-19T12:03:29.400Z,25.32
2018-08-19T12:04:29.650Z,24.08
2018-08-19T12:05:29.895Z,22.63
2018-08-19T12:06:30.179Z,22.64
2018-08-19T12:07:30.413Z,21.95
2018-08-19T12:08:30.687Z,22.15
2018-08-19T12:09:30.921Z,22.41
2018-08-19T12:10:31.151Z,23.15
2018-08-19T12:11:31.429Z,25.67
2018-08-19T12:12:31.645Z,24.53
2018-08-19T12:13:31.896Z,24.56
2018-08-19T12:14:32.148Z,23.55
2018-08-19T12:15:32.424Z,24.92
2018-08-19T12:16:32.646Z,24.73
2018-08-19T12:17:32.887Z,24.34
2018-08-19T12:18:33.130Z,23.96
2018-08-19T12:19:33.392Z,24.02
2018-08-19T12:20:33.670Z,25.28
2018-08-19T12:21:33.911Z,25.38
2018-08-19T12:22:34.187Z,25.28
2018-08-19T12:23:34.466Z,25.48
2018-08-19T12:24:34.708Z,25.88
2018-08-19T12:25:34.962Z,25.21
2018-08-19T12:26:35.223Z,24.55
2018-08-19T12:27:35.650Z,23.19
2018-08-19T12:28:35.721Z,22.99
2018-08-19T12:29:35.978Z,23.11
2018-08-19T12:30:36.239Z,22.60
2018-08-19T12:31:36.503Z,23.38
2018-08-19T12:32:36.737Z,23.38
2018-08-19T12:33:36.983Z,24.33
2018-08-19T12:34:37.252Z,24.93
2018-08-19T12:35:37.527Z,25.54
2018-08-19T12:36:37.758Z,26.43
2018-08-19T12:37:38.070Z,25.65
2018-08-19T12:38:38.300Z,25.40
2018-08-19T12:39:38.529Z,24.81
2018-08-19T12:40:38.787Z,24.41
2018-08-19T12:41:39.043Z,25.01
2018-08-19T12:42:39.297Z,23.43
2018-08-19T12:43:39.552Z,24.11
2018-08-19T12:44:39.809Z,23.36
2018-08-19T12:45:40.048Z,22.86
2018-08-19T12:46:40.302Z,23.05
2018-08-19T12:47:40.550Z,22.77
2018-08-19T12:48:40.798Z,22.77
2018-08-19T12:49:41.049Z,23.31
2018-08-19T12:50:41.307Z,23.21
2018-08-19T12:51:41.559Z,24.66
2018-08-19T12:52:41.805Z,24.97
2018-08-19T12:53:42.061Z,23.69
2018-08-19T12:54:42.313Z,24.27
2018-08-19T12:55:42.626Z,24.87
2018-08-19T12:56:42.836Z,23.79